sensor_id;sensor_type;location;lat;lon;timestamp;pressure;altitude;pressure_sealevel;temperature;humidity
20013;BME280;10167;42.852;23.042;2022-09-09T00:02:24;95095.91;;;16.36;100.00
20013;BME280;10167;42.852;23.042;2022-09-09T00:04:59;95095.88;;;16.16;100.00
20013;BME280;10167;42.852;23.042;2022-09-09T00:07:38;95091.88;;;16.33;100.00
20013;BME280;10167;42.852;23.042;2022-09-09T00:10:17;95095.63;;;16.43;100.00
20013;BME280;10167;42.852;23.042;2022-09-09T00:12:53;95080.91;;;16.40;100.00
20013;BME280;10167;42.852;23.042;2022-09-09T00:15:26;95080.94;;;16.45;100.00
20013;BME280;10167;42.852;23.042;2022-09-09T00:18:03;95081.19;;;16.44;100.00
20013;BME280;10167;42.852;23.042;2022-09-09T00:20:43;95080.38;;;16.43;100.00
20013;BME280;10167;42.852;23.042;2022-09-09T00:23:20;95077.16;;;16.41;100.00
20013;BME280;10167;42.852;23.042;2022-09-09T00:25:59;95089.22;;;16.44;100.00
20013;BME280;10167;42.852;23.042;2022-09-09T00:28:34;95087.31;;;16.39;100.00
20013;BME280;10167;42.852;23.042;2022-09-09T00:31:12;95085.72;;;16.33;100.00
20013;BME280;10167;42.852;23.042;2022-09-09T00:33:43;95087.88;;;16.21;100.00
20013;BME280;10167;42.852;23.042;2022-09-09T00:36:14;95087.03;;;16.05;100.00
20013;BME280;10167;42.852;23.042;2022-09-09T00:38:48;95091.34;;;16.11;100.00
20013;BME280;10167;42.852;23.042;2022-09-09T00:41:22;95077.72;;;16.18;100.00
20013;BME280;10167;42.852;23.042;2022-09-09T00:44:01;95082.78;;;16.14;100.00
20013;BME280;10167;42.852;23.042;2022-09-09T00:46:50;95082.25;;;16.07;100.00
20013;BME280;10167;42.852;23.042;2022-09-09T00:49:32;95084.94;;;16.12;100.00
20013;BME280;10167;42.852;23.042;2022-09-09T00:52:12;95078.50;;;15.98;100.00
20013;BME280;10167;42.852;23.042;2022-09-09T00:54:51;95072.88;;;16.05;100.00
20013;BME280;10167;42.852;23.042;2022-09-09T00:57:26;95072.09;;;16.09;100.00
20013;BME280;10167;42.852;23.042;2022-09-09T01:00:14;95064.09;;;16.09;100.00
20013;BME280;10167;42.852;23.042;2022-09-09T01:02:53;95069.44;;;15.99;100.00
20013;BME280;10167;42.852;23.042;2022-09-09T01:05:27;95072.88;;;16.05;100.00
20013;BME280;10167;42.852;23.042;2022-09-09T01:08:00;95076.06;;;15.91;100.00
20013;BME280;10167;42.852;23.042;2022-09-09T01:10:37;95080.09;;;15.89;100.00
20013;BME280;10167;42.852;23.042;2022-09-09T01:13:15;95088.38;;;15.92;100.00
20013;BME280;10167;42.852;23.042;2022-09-09T01:15:48;95085.69;;;15.92;100.00
20013;BME280;10167;42.852;23.042;2022-09-09T01:18:30;95090.91;;;15.52;100.00
20013;BME280;10167;42.852;23.042;2022-09-09T01:21:09;95094.22;;;15.74;100.00
20013;BME280;10167;42.852;23.042;2022-09-09T01:24:01;95088.06;;;15.69;100.00
20013;BME280;10167;42.852;23.042;2022-09-09T01:26:50;95093.16;;;15.75;100.00
20013;BME280;10167;42.852;23.042;2022-09-09T01:29:25;95091.81;;;15.73;100.00
20013;BME280;10167;42.852;23.042;2022-09-09T01:31:55;95099.28;;;15.71;100.00
20013;BME280;10167;42.852;23.042;2022-09-09T01:34:28;95091.53;;;15.74;100.00
20013;BME280;10167;42.852;23.042;2022-09-09T01:37:00;95103.00;;;15.70;100.00
20013;BME280;10167;42.852;23.042;2022-09-09T01:39:33;95097.84;;;15.48;100.00
20013;BME280;10167;42.852;23.042;2022-09-09T01:42:11;95090.59;;;15.38;100.00
20013;BME280;10167;42.852;23.042;2022-09-09T01:44:41;95086.81;;;15.24;100.00
20013;BME280;10167;42.852;23.042;2022-09-09T01:47:09;95083.31;;;15.18;100.00
20013;BME280;10167;42.852;23.042;2022-09-09T01:49:57;95085.22;;;15.28;100.00
20013;BME280;10167;42.852;23.042;2022-09-09T01:52:30;95081.00;;;15.37;100.00
20013;BME280;10167;42.852;23.042;2022-09-09T01:54:59;95080.72;;;15.39;100.00
20013;BME280;10167;42.852;23.042;2022-09-09T01:57:40;95082.06;;;15.36;100.00
20013;BME280;10167;42.852;23.042;2022-09-09T02:00:15;95079.16;;;15.48;100.00
20013;BME280;10167;42.852;23.042;2022-09-09T02:02:57;95081.56;;;15.49;100.00
20013;BME280;10167;42.852;23.042;2022-09-09T02:05:39;95079.50;;;15.56;100.00
20013;BME280;10167;42.852;23.042;2022-09-09T02:08:22;95079.22;;;15.58;100.00
20013;BME280;10167;42.852;23.042;2022-09-09T02:11:03;95076.28;;;15.59;100.00
20013;BME280;10167;42.852;23.042;2022-09-09T02:13:43;95085.28;;;15.48;100.00
20013;BME280;10167;42.852;23.042;2022-09-09T02:16:20;95079.94;;;15.33;100.00
20013;BME280;10167;42.852;23.042;2022-09-09T02:18:52;95087.69;;;15.40;100.00
20013;BME280;10167;42.852;23.042;2022-09-09T02:21:34;95098.91;;;15.47;100.00
20013;BME280;10167;42.852;23.042;2022-09-09T02:24:06;95106.38;;;15.45;100.00
20013;BME280;10167;42.852;23.042;2022-09-09T02:26:45;95107.94;;;15.36;100.00
20013;BME280;10167;42.852;23.042;2022-09-09T02:29:20;95107.59;;;15.12;100.00
20013;BME280;10167;42.852;23.042;2022-09-09T02:31:52;95107.25;;;14.98;100.00
20013;BME280;10167;42.852;23.042;2022-09-09T02:34:28;95094.38;;;14.85;100.00
20013;BME280;10167;42.852;23.042;2022-09-09T02:36:59;95090.09;;;14.84;100.00
20013;BME280;10167;42.852;23.042;2022-09-09T02:39:29;95094.13;;;14.92;100.00
20013;BME280;10167;42.852;23.042;2022-09-09T02:41:59;95100.84;;;15.04;100.00
20013;BME280;10167;42.852;23.042;2022-09-09T02:44:33;95095.53;;;15.04;100.00
20013;BME280;10167;42.852;23.042;2022-09-09T02:47:10;95095.00;;;15.07;100.00
20013;BME280;10167;42.852;23.042;2022-09-09T02:49:55;95092.91;;;15.09;100.00
20013;BME280;10167;42.852;23.042;2022-09-09T02:52:35;95090.28;;;15.19;100.00
20013;BME280;10167;42.852;23.042;2022-09-09T02:55:14;95092.94;;;15.19;100.00
20013;BME280;10167;42.852;23.042;2022-09-09T02:57:47;95084.13;;;15.19;100.00
20013;BME280;10167;42.852;23.042;2022-09-09T03:00:24;95093.50;;;15.26;100.00
20013;BME280;10167;42.852;23.042;2022-09-09T03:02:54;95089.19;;;15.15;100.00
20013;BME280;10167;42.852;23.042;2022-09-09T03:05:23;95090.78;;;15.16;100.00
20013;BME280;10167;42.852;23.042;2022-09-09T03:07:53;95089.13;;;15.00;100.00
20013;BME280;10167;42.852;23.042;2022-09-09T03:10:23;95086.38;;;14.90;100.00
20013;BME280;10167;42.852;23.042;2022-09-09T03:12:51;95092.03;;;14.99;100.00
20013;BME280;10167;42.852;23.042;2022-09-09T03:15:20;95085.91;;;14.98;100.00
20013;BME280;10167;42.852;23.042;2022-09-09T03:17:51;95086.75;;;15.09;100.00
20013;BME280;10167;42.852;23.042;2022-09-09T03:20:21;95081.41;;;15.09;100.00
20013;BME280;10167;42.852;23.042;2022-09-09T03:22:51;95070.75;;;15.09;100.00
20013;BME280;10167;42.852;23.042;2022-09-09T03:25:20;95078.50;;;15.10;100.00
20013;BME280;10167;42.852;23.042;2022-09-09T03:27:52;95074.47;;;15.08;100.00
20013;BME280;10167;42.852;23.042;2022-09-09T03:30:24;95084.63;;;15.11;100.00
20013;BME280;10167;42.852;23.042;2022-09-09T03:32:57;95098.69;;;14.96;100.00
20013;BME280;10167;42.852;23.042;2022-09-09T03:35:30;95090.97;;;15.00;100.00
20013;BME280;10167;42.852;23.042;2022-09-09T03:37:59;95091.00;;;15.05;100.00
20013;BME280;10167;42.852;23.042;2022-09-09T03:40:31;95093.06;;;14.87;100.00
20013;BME280;10167;42.852;23.042;2022-09-09T03:43:00;95090.94;;;14.95;100.00
20013;BME280;10167;42.852;23.042;2022-09-09T03:45:29;95092.00;;;14.88;100.00
20013;BME280;10167;42.852;23.042;2022-09-09T03:47:59;95084.72;;;14.79;100.00
20013;BME280;10167;42.852;23.042;2022-09-09T03:50:29;95088.16;;;14.74;100.00
20013;BME280;10167;42.852;23.042;2022-09-09T03:52:59;95092.31;;;14.55;100.00
20013;BME280;10167;42.852;23.042;2022-09-09T03:55:28;95088.41;;;14.36;100.00
20013;BME280;10167;42.852;23.042;2022-09-09T03:57:57;95082.75;;;14.27;100.00
20013;BME280;10167;42.852;23.042;2022-09-09T04:00:28;95091.47;;;14.17;100.00
20013;BME280;10167;42.852;23.042;2022-09-09T04:02:59;95094.03;;;14.07;100.00
20013;BME280;10167;42.852;23.042;2022-09-09T04:05:28;95091.97;;;14.14;100.00
20013;BME280;10167;42.852;23.042;2022-09-09T04:07:57;95092.13;;;14.35;100.00
20013;BME280;10167;42.852;23.042;2022-09-09T04:10:26;95093.03;;;14.45;100.00
20013;BME280;10167;42.852;23.042;2022-09-09T04:12:57;95105.66;;;14.55;100.00
20013;BME280;10167;42.852;23.042;2022-09-09T04:15:27;95100.88;;;14.62;100.00
20013;BME280;10167;42.852;23.042;2022-09-09T04:17:56;95092.59;;;14.59;100.00
20013;BME280;10167;42.852;23.042;2022-09-09T04:20:26;95099.88;;;14.73;100.00
20013;BME280;10167;42.852;23.042;2022-09-09T04:22:55;95093.81;;;14.83;100.00
20013;BME280;10167;42.852;23.042;2022-09-09T04:25:24;95090.59;;;14.81;100.00
20013;BME280;10167;42.852;23.042;2022-09-09T04:27:53;95101.56;;;14.84;100.00
20013;BME280;10167;42.852;23.042;2022-09-09T04:30:23;95100.50;;;14.90;100.00
20013;BME280;10167;42.852;23.042;2022-09-09T04:32:54;95110.47;;;15.00;100.00
20013;BME280;10167;42.852;23.042;2022-09-09T04:35:23;95102.47;;;15.05;100.00
20013;BME280;10167;42.852;23.042;2022-09-09T04:37:54;95102.81;;;15.19;100.00
20013;BME280;10167;42.852;23.042;2022-09-09T04:40:23;95091.03;;;15.15;100.00
20013;BME280;10167;42.852;23.042;2022-09-09T04:42:52;95087.81;;;15.13;100.00
20013;BME280;10167;42.852;23.042;2022-09-09T04:45:21;95074.53;;;15.18;100.00
20013;BME280;10167;42.852;23.042;2022-09-09T04:47:50;95077.75;;;15.25;100.00
20013;BME280;10167;42.852;23.042;2022-09-09T04:50:19;95093.31;;;15.48;100.00
20013;BME280;10167;42.852;23.042;2022-09-09T04:53:01;95092.84;;;15.56;100.00
20013;BME280;10167;42.852;23.042;2022-09-09T04:55:31;95089.94;;;15.73;100.00
20013;BME280;10167;42.852;23.042;2022-09-09T04:58:03;95083.84;;;15.88;100.00
20013;BME280;10167;42.852;23.042;2022-09-09T05:00:33;95086.53;;;16.13;100.00
20013;BME280;10167;42.852;23.042;2022-09-09T05:03:05;95090.28;;;16.48;100.00
20013;BME280;10167;42.852;23.042;2022-09-09T05:05:36;95095.56;;;16.98;100.00
20013;BME280;10167;42.852;23.042;2022-09-09T05:08:08;95093.47;;;17.60;100.00
20013;BME280;10167;42.852;23.042;2022-09-09T05:10:38;95087.75;;;18.21;100.00
20013;BME280;10167;42.852;23.042;2022-09-09T05:13:09;95098.53;;;18.83;100.00
20013;BME280;10167;42.852;23.042;2022-09-09T05:15:38;95107.81;;;19.44;100.00
20013;BME280;10167;42.852;23.042;2022-09-09T05:18:07;95109.59;;;19.96;100.00
20013;BME280;10167;42.852;23.042;2022-09-09T05:20:36;95118.66;;;20.56;100.00
20013;BME280;10167;42.852;23.042;2022-09-09T05:23:07;95126.22;;;21.19;100.00
20013;BME280;10167;42.852;23.042;2022-09-09T05:25:37;95116.63;;;21.82;100.00
20013;BME280;10167;42.852;23.042;2022-09-09T05:28:06;95118.19;;;22.46;100.00
20013;BME280;10167;42.852;23.042;2022-09-09T05:30:35;95120.69;;;23.01;100.00
20013;BME280;10167;42.852;23.042;2022-09-09T05:33:05;95121.59;;;23.58;100.00
20013;BME280;10167;42.852;23.042;2022-09-09T05:35:37;95129.03;;;24.01;100.00
20013;BME280;10167;42.852;23.042;2022-09-09T05:38:08;95127.81;;;24.50;100.00
20013;BME280;10167;42.852;23.042;2022-09-09T05:40:37;95128.44;;;24.90;100.00
20013;BME280;10167;42.852;23.042;2022-09-09T05:43:06;95128.56;;;25.28;100.00
20013;BME280;10167;42.852;23.042;2022-09-09T05:45:35;95122.78;;;25.76;100.00
20013;BME280;10167;42.852;23.042;2022-09-09T05:48:03;95125.09;;;25.95;100.00
20013;BME280;10167;42.852;23.042;2022-09-09T05:50:32;95123.22;;;25.49;100.00
20013;BME280;10167;42.852;23.042;2022-09-09T05:53:01;95120.16;;;24.95;100.00
20013;BME280;10167;42.852;23.042;2022-09-09T05:55:32;95121.06;;;24.04;100.00
20013;BME280;10167;42.852;23.042;2022-09-09T05:58:01;95112.19;;;24.12;100.00
20013;BME280;10167;42.852;23.042;2022-09-09T06:00:30;95115.13;;;23.68;100.00
20013;BME280;10167;42.852;23.042;2022-09-09T06:03:00;95125.41;;;23.26;100.00
20013;BME280;10167;42.852;23.042;2022-09-09T06:05:28;95117.78;;;22.97;100.00
20013;BME280;10167;42.852;23.042;2022-09-09T06:07:58;95130.97;;;22.54;100.00
20013;BME280;10167;42.852;23.042;2022-09-09T06:10:27;95133.91;;;22.44;100.00
20013;BME280;10167;42.852;23.042;2022-09-09T06:12:58;95127.28;;;22.50;100.00
20013;BME280;10167;42.852;23.042;2022-09-09T06:15:27;95128.50;;;22.44;100.00
20013;BME280;10167;42.852;23.042;2022-09-09T06:17:58;95129.78;;;22.69;100.00
20013;BME280;10167;42.852;23.042;2022-09-09T06:20:26;95128.84;;;22.87;100.00
20013;BME280;10167;42.852;23.042;2022-09-09T06:22:58;95135.53;;;23.12;100.00
20013;BME280;10167;42.852;23.042;2022-09-09T06:25:27;95131.06;;;23.16;100.00
20013;BME280;10167;42.852;23.042;2022-09-09T06:27:56;95123.41;;;23.40;100.00
20013;BME280;10167;42.852;23.042;2022-09-09T06:30:26;95124.69;;;23.43;100.00
20013;BME280;10167;42.852;23.042;2022-09-09T06:32:55;95125.63;;;23.69;100.00
20013;BME280;10167;42.852;23.042;2022-09-09T06:35:25;95118.81;;;23.80;100.00
20013;BME280;10167;42.852;23.042;2022-09-09T06:37:54;95121.97;;;23.82;100.00
20013;BME280;10167;42.852;23.042;2022-09-09T06:40:23;95125.94;;;23.68;100.00
20013;BME280;10167;42.852;23.042;2022-09-09T06:42:52;95126.84;;;23.63;100.00
20013;BME280;10167;42.852;23.042;2022-09-09T06:45:34;95133.97;;;23.99;100.00
20013;BME280;10167;42.852;23.042;2022-09-09T06:48:03;95139.84;;;23.92;100.00
20013;BME280;10167;42.852;23.042;2022-09-09T06:50:32;95142.56;;;24.01;100.00
20013;BME280;10167;42.852;23.042;2022-09-09T06:53:02;95140.47;;;24.06;100.00
20013;BME280;10167;42.852;23.042;2022-09-09T06:55:31;95142.88;;;23.99;100.00
20013;BME280;10167;42.852;23.042;2022-09-09T06:58:00;95132.94;;;23.77;100.00
20013;BME280;10167;42.852;23.042;2022-09-09T07:00:30;95134.25;;;23.80;100.00
20013;BME280;10167;42.852;23.042;2022-09-09T07:03:00;95131.63;;;23.58;100.00
20013;BME280;10167;42.852;23.042;2022-09-09T07:05:29;95125.88;;;23.59;100.00
20013;BME280;10167;42.852;23.042;2022-09-09T07:07:58;95132.66;;;23.87;100.00
20013;BME280;10167;42.852;23.042;2022-09-09T07:10:27;95125.03;;;23.89;100.00
20013;BME280;10167;42.852;23.042;2022-09-09T07:12:56;95122.84;;;24.17;100.00
20013;BME280;10167;42.852;23.042;2022-09-09T07:15:25;95122.91;;;24.35;100.00
20013;BME280;10167;42.852;23.042;2022-09-09T07:17:54;95124.34;;;24.58;100.00
20013;BME280;10167;42.852;23.042;2022-09-09T07:20:25;95127.19;;;24.70;100.00
20013;BME280;10167;42.852;23.042;2022-09-09T07:22:54;95124.94;;;24.64;100.00
20013;BME280;10167;42.852;23.042;2022-09-09T07:25:24;95116.06;;;24.46;100.00
20013;BME280;10167;42.852;23.042;2022-09-09T07:27:54;95122.75;;;24.48;100.00
20013;BME280;10167;42.852;23.042;2022-09-09T07:30:23;95116.69;;;24.34;100.00
20013;BME280;10167;42.852;23.042;2022-09-09T07:32:55;95122.09;;;24.34;100.00
20013;BME280;10167;42.852;23.042;2022-09-09T07:35:28;95123.53;;;24.32;100.00
20013;BME280;10167;42.852;23.042;2022-09-09T07:37:57;95131.94;;;24.21;100.00
20013;BME280;10167;42.852;23.042;2022-09-09T07:40:26;95124.41;;;24.01;100.00
20013;BME280;10167;42.852;23.042;2022-09-09T07:42:56;95127.13;;;24.01;100.00
20013;BME280;10167;42.852;23.042;2022-09-09T07:45:25;95130.75;;;23.88;100.00
20013;BME280;10167;42.852;23.042;2022-09-09T07:47:55;95120.28;;;24.04;100.00
20013;BME280;10167;42.852;23.042;2022-09-09T07:50:25;95128.53;;;23.90;100.00
20013;BME280;10167;42.852;23.042;2022-09-09T07:52:55;95118.84;;;24.06;100.00
20013;BME280;10167;42.852;23.042;2022-09-09T07:55:25;95128.72;;;24.02;100.00
20013;BME280;10167;42.852;23.042;2022-09-09T07:57:55;95132.97;;;23.95;100.00
20013;BME280;10167;42.852;23.042;2022-09-09T08:00:24;95124.25;;;23.98;100.00
20013;BME280;10167;42.852;23.042;2022-09-09T08:02:57;95120.56;;;23.45;100.00
20013;BME280;10167;42.852;23.042;2022-09-09T08:05:28;95119.72;;;23.59;100.00
20013;BME280;10167;42.852;23.042;2022-09-09T08:07:59;95106.94;;;23.59;100.00
20013;BME280;10167;42.852;23.042;2022-09-09T08:10:28;95120.88;;;23.44;100.00
20013;BME280;10167;42.852;23.042;2022-09-09T08:12:58;95118.09;;;23.27;100.00
20013;BME280;10167;42.852;23.042;2022-09-09T08:15:44;95111.63;;;23.36;100.00
20013;BME280;10167;42.852;23.042;2022-09-09T08:18:14;95115.56;;;23.30;100.00
20013;BME280;10167;42.852;23.042;2022-09-09T08:20:44;95119.16;;;23.17;100.00
20013;BME280;10167;42.852;23.042;2022-09-09T08:23:15;95119.38;;;23.29;100.00
20013;BME280;10167;42.852;23.042;2022-09-09T08:25:44;95104.16;;;23.33;100.00
20013;BME280;10167;42.852;23.042;2022-09-09T08:28:14;95114.81;;;23.38;100.00
20013;BME280;10167;42.852;23.042;2022-09-09T08:30:44;95119.22;;;23.57;100.00
20013;BME280;10167;42.852;23.042;2022-09-09T08:33:15;95121.13;;;23.65;100.00
20013;BME280;10167;42.852;23.042;2022-09-09T08:35:50;95106.22;;;23.76;100.00
20013;BME280;10167;42.852;23.042;2022-09-09T08:38:21;95104.31;;;23.85;100.00
20013;BME280;10167;42.852;23.042;2022-09-09T08:40:53;95106.72;;;23.95;100.00
20013;BME280;10167;42.852;23.042;2022-09-09T08:43:29;95109.47;;;24.12;100.00
20013;BME280;10167;42.852;23.042;2022-09-09T08:46:05;95110.94;;;24.27;100.00
20013;BME280;10167;42.852;23.042;2022-09-09T08:48:45;95101.72;;;24.37;100.00
20013;BME280;10167;42.852;23.042;2022-09-09T08:51:16;95111.28;;;24.60;100.00
20013;BME280;10167;42.852;23.042;2022-09-09T08:53:49;95111.09;;;24.39;100.00
20013;BME280;10167;42.852;23.042;2022-09-09T08:56:27;95115.88;;;24.51;100.00
20013;BME280;10167;42.852;23.042;2022-09-09T08:59:01;95108.06;;;24.49;100.00
20013;BME280;10167;42.852;23.042;2022-09-09T09:01:55;95100.91;;;24.53;100.00
20013;BME280;10167;42.852;23.042;2022-09-09T09:04:46;95098.06;;;24.58;100.00
20013;BME280;10167;42.852;23.042;2022-09-09T09:07:26;95100.63;;;24.38;100.00
20013;BME280;10167;42.852;23.042;2022-09-09T09:10:09;95097.44;;;24.36;100.00
20013;BME280;10167;42.852;23.042;2022-09-09T09:13:02;95107.28;;;24.32;100.00
20013;BME280;10167;42.852;23.042;2022-09-09T09:15:36;95094.56;;;24.23;100.00
20013;BME280;10167;42.852;23.042;2022-09-09T09:18:11;95089.75;;;24.12;100.00
20013;BME280;10167;42.852;23.042;2022-09-09T09:20:50;95087.22;;;24.24;100.00
20013;BME280;10167;42.852;23.042;2022-09-09T09:23:24;95081.31;;;24.13;100.00
20013;BME280;10167;42.852;23.042;2022-09-09T09:26:00;95086.88;;;24.17;100.00
20013;BME280;10167;42.852;23.042;2022-09-09T09:28:32;95091.47;;;23.91;100.00
20013;BME280;10167;42.852;23.042;2022-09-09T09:31:10;95089.88;;;23.98;100.00
20013;BME280;10167;42.852;23.042;2022-09-09T09:33:47;95090.34;;;23.92;100.00
20013;BME280;10167;42.852;23.042;2022-09-09T09:36:20;95089.69;;;23.86;100.00
20013;BME280;10167;42.852;23.042;2022-09-09T09:38:54;95095.69;;;23.66;100.00
20013;BME280;10167;42.852;23.042;2022-09-09T09:41:47;95097.13;;;23.72;100.00
20013;BME280;10167;42.852;23.042;2022-09-09T09:44:25;95105.25;;;23.72;100.00
20013;BME280;10167;42.852;23.042;2022-09-09T09:47:06;95095.09;;;23.69;100.00
20013;BME280;10167;42.852;23.042;2022-09-09T09:49:36;95103.19;;;23.69;100.00
20013;BME280;10167;42.852;23.042;2022-09-09T09:52:06;95100.78;;;23.67;100.00
20013;BME280;10167;42.852;23.042;2022-09-09T09:54:38;95098.72;;;23.73;100.00
20013;BME280;10167;42.852;23.042;2022-09-09T09:57:10;95102.22;;;23.73;100.00
20013;BME280;10167;42.852;23.042;2022-09-09T09:59:41;95095.53;;;23.71;100.00
20013;BME280;10167;42.852;23.042;2022-09-09T10:02:19;95102.22;;;23.73;100.00
20013;BME280;10167;42.852;23.042;2022-09-09T10:05:02;95102.84;;;23.70;100.00
20013;BME280;10167;42.852;23.042;2022-09-09T10:07:33;95098.09;;;23.67;100.00
20013;BME280;10167;42.852;23.042;2022-09-09T10:10:05;95099.69;;;23.68;100.00
20013;BME280;10167;42.852;23.042;2022-09-09T10:12:46;95115.13;;;23.68;100.00
20013;BME280;10167;42.852;23.042;2022-09-09T10:15:30;95113.53;;;23.67;100.00
20013;BME280;10167;42.852;23.042;2022-09-09T10:18:13;95110.19;;;23.70;100.00
20013;BME280;10167;42.852;23.042;2022-09-09T10:20:54;95107.94;;;23.72;100.00
20013;BME280;10167;42.852;23.042;2022-09-09T10:23:38;95107.50;;;23.78;100.00
20013;BME280;10167;42.852;23.042;2022-09-09T10:26:20;95114.03;;;23.86;100.00
20013;BME280;10167;42.852;23.042;2022-09-09T10:29:08;95099.41;;;23.96;100.00
20013;BME280;10167;42.852;23.042;2022-09-09T10:31:50;95114.84;;;23.95;100.00
20013;BME280;10167;42.852;23.042;2022-09-09T10:34:38;95110.41;;;23.99;100.00
20013;BME280;10167;42.852;23.042;2022-09-09T10:37:22;95115.81;;;23.99;100.00
20013;BME280;10167;42.852;23.042;2022-09-09T10:39:58;95115.16;;;23.94;100.00
20013;BME280;10167;42.852;23.042;2022-09-09T10:42:31;95107.03;;;23.94;100.00
20013;BME280;10167;42.852;23.042;2022-09-09T10:45:13;95112.44;;;23.94;100.00
20013;BME280;10167;42.852;23.042;2022-09-09T10:48:01;95105.31;;;23.98;100.00
20013;BME280;10167;42.852;23.042;2022-09-09T10:50:45;95102.63;;;24.06;100.00
20013;BME280;10167;42.852;23.042;2022-09-09T10:53:38;95102.78;;;24.18;100.00
20013;BME280;10167;42.852;23.042;2022-09-09T10:56:12;95112.06;;;24.26;100.00
20013;BME280;10167;42.852;23.042;2022-09-09T10:58:45;95102.97;;;24.31;100.00
20013;BME280;10167;42.852;23.042;2022-09-09T11:01:21;95099.31;;;24.44;100.00
20013;BME280;10167;42.852;23.042;2022-09-09T11:03:54;95098.53;;;24.52;100.00
20013;BME280;10167;42.852;23.042;2022-09-09T11:06:29;95092.00;;;24.70;100.00
20013;BME280;10167;42.852;23.042;2022-09-09T11:09:01;95070.59;;;24.86;100.00
20013;BME280;10167;42.852;23.042;2022-09-09T11:11:34;95065.13;;;25.12;100.00
20013;BME280;10167;42.852;23.042;2022-09-09T11:14:10;95066.34;;;25.31;100.00
20013;BME280;10167;42.852;23.042;2022-09-09T11:16:45;95061.22;;;25.39;100.00
20013;BME280;10167;42.852;23.042;2022-09-09T11:19:20;95057.28;;;25.57;100.00
20013;BME280;10167;42.852;23.042;2022-09-09T11:21:53;95047.69;;;25.68;100.00
20013;BME280;10167;42.852;23.042;2022-09-09T11:24:26;95034.66;;;25.61;100.00
20013;BME280;10167;42.852;23.042;2022-09-09T11:27:00;95026.56;;;25.74;100.00
20013;BME280;10167;42.852;23.042;2022-09-09T11:30:02;95029.00;;;25.96;100.00
20013;BME280;10167;42.852;23.042;2022-09-09T11:33:02;95025.28;;;26.00;100.00
20013;BME280;10167;42.852;23.042;2022-09-09T11:35:42;95025.94;;;26.18;100.00
20013;BME280;10167;42.852;23.042;2022-09-09T11:38:19;95020.78;;;26.46;100.00
20013;BME280;10167;42.852;23.042;2022-09-09T11:40:56;95026.50;;;26.65;100.00
20013;BME280;10167;42.852;23.042;2022-09-09T11:43:29;95026.75;;;26.72;100.00
20013;BME280;10167;42.852;23.042;2022-09-09T11:46:01;95025.66;;;26.86;100.00
20013;BME280;10167;42.852;23.042;2022-09-09T11:48:36;95008.47;;;26.94;100.00
20013;BME280;10167;42.852;23.042;2022-09-09T11:51:07;95011.53;;;26.92;100.00
20013;BME280;10167;42.852;23.042;2022-09-09T11:53:50;95007.81;;;27.09;100.00
20013;BME280;10167;42.852;23.042;2022-09-09T11:56:28;95009.19;;;27.15;100.00
20013;BME280;10167;42.852;23.042;2022-09-09T11:59:00;95004.66;;;27.07;100.00
20013;BME280;10167;42.852;23.042;2022-09-09T12:01:35;95010.97;;;26.99;100.00
20013;BME280;10167;42.852;23.042;2022-09-09T12:04:18;95009.06;;;27.24;100.00
20013;BME280;10167;42.852;23.042;2022-09-09T12:06:53;95001.84;;;27.64;100.00
20013;BME280;10167;42.852;23.042;2022-09-09T12:09:27;95001.84;;;28.16;100.00
20013;BME280;10167;42.852;23.042;2022-09-09T12:12:25;94997.59;;;28.59;100.00
20013;BME280;10167;42.852;23.042;2022-09-09T12:15:01;94998.09;;;28.77;100.00
20013;BME280;10167;42.852;23.042;2022-09-09T12:17:31;94991.78;;;29.04;100.00
20013;BME280;10167;42.852;23.042;2022-09-09T12:20:13;94989.41;;;29.18;100.00
20013;BME280;10167;42.852;23.042;2022-09-09T12:22:51;94987.59;;;28.63;100.00
20013;BME280;10167;42.852;23.042;2022-09-09T12:25:29;94983.06;;;28.39;100.00
20013;BME280;10167;42.852;23.042;2022-09-09T12:28:04;94980.16;;;28.32;100.00
20013;BME280;10167;42.852;23.042;2022-09-09T12:30:40;94972.56;;;28.13;100.00
20013;BME280;10167;42.852;23.042;2022-09-09T12:33:15;94971.22;;;27.67;100.00
20013;BME280;10167;42.852;23.042;2022-09-09T12:35:48;94972.72;;;27.65;100.00
20013;BME280;10167;42.852;23.042;2022-09-09T12:38:25;94965.88;;;27.71;100.00
20013;BME280;10167;42.852;23.042;2022-09-09T12:40:58;94960.66;;;27.78;100.00
20013;BME280;10167;42.852;23.042;2022-09-09T12:43:28;94963.69;;;27.89;100.00
20013;BME280;10167;42.852;23.042;2022-09-09T12:45:59;94958.69;;;27.91;100.00
20013;BME280;10167;42.852;23.042;2022-09-09T12:48:33;94963.78;;;27.92;100.00
20013;BME280;10167;42.852;23.042;2022-09-09T12:51:15;94957.59;;;27.79;100.00
20013;BME280;10167;42.852;23.042;2022-09-09T12:53:45;94963.06;;;27.55;100.00
20013;BME280;10167;42.852;23.042;2022-09-09T12:56:20;94960.56;;;27.50;100.00
20013;BME280;10167;42.852;23.042;2022-09-09T12:58:51;94954.81;;;27.27;100.00
20013;BME280;10167;42.852;23.042;2022-09-09T13:01:22;94949.38;;;27.27;100.00
20013;BME280;10167;42.852;23.042;2022-09-09T13:03:53;94952.09;;;27.27;100.00
20013;BME280;10167;42.852;23.042;2022-09-09T13:06:24;94945.88;;;27.27;100.00
20013;BME280;10167;42.852;23.042;2022-09-09T13:08:57;94945.28;;;27.21;100.00
20013;BME280;10167;42.852;23.042;2022-09-09T13:11:29;94942.47;;;27.05;100.00
20013;BME280;10167;42.852;23.042;2022-09-09T13:13:59;94938.97;;;26.93;100.00
20013;BME280;10167;42.852;23.042;2022-09-09T13:16:31;94927.03;;;26.85;100.00